Elorz, Spain
Current Conditions -  °F | °C
As of 11:30 AM on Monday 20 Oct 2014 (Local Time) from LEPP Reporting Station
Clear Clear  
Wind Chill: 66°   Ceiling: Unl
Heat Index: 66°   Visibility: 6mi
Dew Point: 54°   Wind: 0mph
Humidity: 64%   Direction: NA
Pressure: 30.27"   Gusts: NA
Location:  42.73°N, 1.56°W
Report Text: LEPP 200930Z 00000KT CAVOK 19/12 Q1025
Loading
Personal Weather Stations






























Interactive Weather Map
Tropical Storm Tracking
New forecast layout! Learn more

10-Day Weather Forecast

Advertisements
Track Severe Weather on mobile